createdAt,value
2017-01-09T00:03:50.863Z,17.3
2017-01-09T00:08:51.214Z,17.39
2017-01-09T00:13:51.190Z,17.22
2017-01-09T00:18:50.758Z,17.22
2017-01-09T00:23:51.120Z,17.15
2017-01-09T00:28:51.084Z,17.13
2017-01-09T00:33:51.052Z,17.12
2017-01-09T00:38:50.631Z,17.05
2017-01-09T00:43:50.984Z,17.02
2017-01-09T00:48:50.951Z,17
2017-01-09T00:53:50.532Z,16.94
2017-01-09T00:58:50.890Z,16.94
2017-01-09T01:03:50.852Z,16.91
2017-01-09T01:08:50.426Z,16.87
2017-01-09T01:13:50.822Z,16.73
2017-01-09T01:18:50.756Z,16.72
2017-01-09T01:23:50.323Z,16.77
2017-01-09T01:28:50.291Z,16.7
2017-01-09T01:33:50.652Z,16.67
2017-01-09T01:38:50.605Z,16.69
2017-01-09T01:43:50.185Z,16.58
2017-01-09T01:48:50.154Z,16.58
2017-01-09T01:53:50.557Z,16.57
2017-01-09T01:58:50.469Z,16.58
2017-01-09T02:03:50.047Z,16.55
2017-01-09T02:08:50.402Z,16.48
2017-01-09T02:13:49.980Z,16.45
2017-01-09T02:18:49.949Z,16.44
2017-01-09T02:23:50.291Z,16.44
2017-01-09T02:28:50.259Z,16.47
2017-01-09T02:33:49.847Z,16.44
2017-01-09T02:38:50.191Z,16.39
2017-01-09T02:43:49.770Z,16.3
2017-01-09T02:48:49.732Z,16.32
2017-01-09T02:53:49.698Z,16.34
2017-01-09T02:58:49.659Z,16.26
2017-01-09T03:03:50.011Z,16.13
2017-01-09T03:08:49.587Z,16.16
2017-01-09T03:13:49.938Z,16.13
2017-01-09T03:18:49.904Z,16.11
2017-01-09T03:23:49.864Z,16.08
2017-01-09T03:28:49.830Z,16.06
2017-01-09T03:33:49.790Z,16.1
2017-01-09T03:38:49.364Z,16.04
2017-01-09T03:43:49.730Z,16.07
2017-01-09T03:48:49.678Z,16.06
2017-01-09T03:53:49.648Z,15.95
2017-01-09T03:58:49.604Z,16
2017-01-09T04:03:49.573Z,15.96
2017-01-09T04:08:49.528Z,15.86
2017-01-09T04:13:49.111Z,15.89
2017-01-09T04:18:49.459Z,15.91
2017-01-09T04:23:49.421Z,15.78
2017-01-09T04:28:48.997Z,15.83
2017-01-09T04:33:49.345Z,15.78
2017-01-09T04:38:49.320Z,15.84
2017-01-09T04:43:48.887Z,15.74
2017-01-09T04:48:48.844Z,15.81
2017-01-09T04:53:48.810Z,15.73
2017-01-09T04:58:49.158Z,15.68
2017-01-09T05:03:49.114Z,15.67
2017-01-09T05:08:49.079Z,15.65
2017-01-09T05:13:48.654Z,15.62
2017-01-09T05:18:49.006Z,15.67
2017-01-09T05:23:48.960Z,15.68
2017-01-09T05:28:48.925Z,15.59
2017-01-09T05:33:48.897Z,15.51
2017-01-09T05:38:48.855Z,15.55
2017-01-09T05:43:48.811Z,15.63
2017-01-09T05:48:48.765Z,15.55
2017-01-09T05:53:48.727Z,15.59
2017-01-09T05:58:48.302Z,15.56
2017-01-09T06:03:48.263Z,15.53
2017-01-09T06:08:48.231Z,15.47
2017-01-09T06:13:47.797Z,15.45
2017-01-09T06:18:48.537Z,15.53
2017-01-09T06:23:48.499Z,15.4
2017-01-09T06:28:48.455Z,15.43
2017-01-09T06:33:48.027Z,15.43
2017-01-09T06:38:48.379Z,15.65
2017-01-09T06:43:48.337Z,16
2017-01-09T06:48:47.911Z,16.67
2017-01-09T06:53:47.877Z,17.38
2017-01-09T06:58:47.846Z,18.01
2017-01-09T07:03:47.814Z,18.56
2017-01-09T07:08:47.792Z,18.86
2017-01-09T07:13:48.152Z,19.13
2017-01-09T07:18:48.132Z,19.45
2017-01-09T07:23:47.715Z,19.47
2017-01-09T07:28:48.085Z,19.47
2017-01-09T07:33:47.670Z,19.47
2017-01-09T07:38:48.042Z,19.31
2017-01-09T07:43:48.015Z,19.23
2017-01-09T07:48:47.994Z,19.06
2017-01-09T07:53:47.980Z,19.1
2017-01-09T07:58:47.571Z,18.94
2017-01-09T08:03:47.540Z,18.99
2017-01-09T08:08:47.522Z,18.94
2017-01-09T08:13:47.890Z,18.86
2017-01-09T08:18:47.864Z,18.93
2017-01-09T08:23:47.840Z,18.9
2017-01-09T08:28:47.822Z,18.78
2017-01-09T08:33:47.795Z,18.68
2017-01-09T08:38:47.775Z,18.56
2017-01-09T08:43:47.757Z,18.57
2017-01-09T08:48:47.731Z,18.59
2017-01-09T08:53:47.703Z,18.57
2017-01-09T08:58:47.681Z,18.71
2017-01-09T09:03:47.663Z,18.84
2017-01-09T09:08:47.635Z,18.87
2017-01-09T09:13:47.614Z,18.94
2017-01-09T09:18:47.593Z,19.07
2017-01-09T09:23:47.178Z,19.24
2017-01-09T09:28:46.774Z,19.27
2017-01-09T09:33:47.154Z,19.37
2017-01-09T09:38:47.504Z,19.37
2017-01-09T09:43:47.107Z,19.32
2017-01-09T09:48:47.075Z,19.25
2017-01-09T09:53:47.057Z,19.23
2017-01-09T09:58:47.419Z,19
2017-01-09T10:03:47.411Z,19.12
2017-01-09T10:08:46.987Z,19.34
2017-01-09T10:13:47.579Z,19.27
2017-01-09T10:18:47.343Z,19.09
2017-01-09T10:23:46.929Z,19.02
2017-01-09T10:28:46.521Z,18.9
2017-01-09T10:33:47.286Z,18.84
2017-01-09T10:38:46.862Z,18.9
2017-01-09T10:43:47.232Z,18.81
2017-01-09T10:48:46.818Z,18.81
2017-01-09T10:53:46.796Z,18.93
2017-01-09T10:58:47.150Z,18.91
2017-01-09T11:03:46.368Z,18.93
2017-01-09T11:08:47.117Z,19
2017-01-09T11:13:47.091Z,18.93
2017-01-09T11:18:46.671Z,18.93
2017-01-09T11:23:46.659Z,19.1
2017-01-09T11:28:47.015Z,19.16
2017-01-09T11:33:46.997Z,19.09
2017-01-09T11:38:46.977Z,19.02
2017-01-09T11:43:46.563Z,18.93
2017-01-09T11:48:46.541Z,18.97
2017-01-09T11:53:46.903Z,18.86
2017-01-09T11:58:46.107Z,18.94
2017-01-09T12:03:46.859Z,18.87
2017-01-09T12:08:46.834Z,18.91
2017-01-09T12:13:46.811Z,18.96
2017-01-09T12:18:46.395Z,18.97
2017-01-09T12:23:46.763Z,19.09
2017-01-09T12:28:46.355Z,19.07
2017-01-09T12:33:46.714Z,19
2017-01-09T12:38:46.696Z,18.79
2017-01-09T12:43:46.282Z,18.82
2017-01-09T12:48:46.644Z,18.69
2017-01-09T12:53:46.616Z,18.71
2017-01-09T12:58:45.815Z,18.71
2017-01-09T13:03:46.183Z,18.65
2017-01-09T13:08:46.545Z,18.68
2017-01-09T13:13:46.521Z,18.87
2017-01-09T13:18:46.498Z,18.81
2017-01-09T13:23:46.088Z,18.94
2017-01-09T13:28:46.061Z,18.9
2017-01-09T13:33:46.424Z,18.97
2017-01-09T13:38:46.399Z,18.99
2017-01-09T13:43:46.386Z,19
2017-01-09T13:48:46.372Z,18.99
2017-01-09T13:53:46.334Z,18.96
2017-01-09T13:58:46.327Z,18.9
2017-01-09T14:03:45.902Z,18.86
2017-01-09T14:08:45.895Z,18.87
2017-01-09T14:13:45.864Z,18.81
2017-01-09T14:18:46.215Z,18.66
2017-01-09T14:23:46.195Z,18.5
2017-01-09T14:28:46.165Z,18.57
2017-01-09T14:33:46.147Z,18.6
2017-01-09T14:38:46.121Z,18.56
2017-01-09T14:43:45.707Z,18.61
2017-01-09T14:48:45.291Z,18.69
2017-01-09T14:53:45.659Z,18.68
2017-01-09T14:58:45.638Z,18.69
2017-01-09T15:03:45.996Z,18.69
2017-01-09T15:08:45.200Z,18.86
2017-01-09T15:13:45.561Z,18.79
2017-01-09T15:18:45.927Z,18.93
2017-01-09T15:23:45.520Z,18.86
2017-01-09T15:28:45.492Z,18.86
2017-01-09T15:33:45.470Z,18.82
2017-01-09T15:38:45.457Z,18.78
2017-01-09T15:43:45.798Z,18.69
2017-01-09T15:48:45.779Z,18.78
2017-01-09T15:53:44.972Z,18.66
2017-01-09T15:58:45.721Z,18.69
2017-01-09T16:03:45.709Z,18.71
2017-01-09T16:08:45.281Z,18.78
2017-01-09T16:13:45.647Z,18.74
2017-01-09T16:18:45.229Z,18.82
2017-01-09T16:23:44.816Z,19
2017-01-09T16:28:45.185Z,18.96
2017-01-09T16:33:45.535Z,18.94
2017-01-09T16:38:45.130Z,19
2017-01-09T16:43:45.491Z,19.06
2017-01-09T16:48:45.076Z,19.37
2017-01-09T16:53:45.438Z,19.75
2017-01-09T16:58:45.429Z,19.95
2017-01-09T17:03:44.623Z,20.07
2017-01-09T17:08:45.395Z,20.38
2017-01-09T17:13:44.993Z,20.81
2017-01-09T17:18:45.354Z,21.08
2017-01-09T17:23:44.571Z,21.15
2017-01-09T17:28:44.556Z,21.19
2017-01-09T17:33:45.317Z,21.16
2017-01-09T17:38:45.303Z,21.06
2017-01-09T17:43:45.297Z,20.85
2017-01-09T17:48:45.282Z,20.74
2017-01-09T17:53:44.894Z,20.67
2017-01-09T17:58:45.256Z,20.63
2017-01-09T18:03:45.250Z,20.54
2017-01-09T18:08:44.835Z,20.48
2017-01-09T18:13:44.826Z,20.49
2017-01-09T18:18:44.804Z,20.49
2017-01-09T18:23:45.173Z,20.51
2017-01-09T18:28:44.774Z,20.42
2017-01-09T18:33:44.764Z,20.48
2017-01-09T18:38:45.133Z,20.6
2017-01-09T18:43:45.152Z,20.64
2017-01-09T18:48:44.713Z,20.6
2017-01-09T18:53:45.105Z,20.68
2017-01-09T18:58:45.081Z,20.74
2017-01-09T19:03:45.054Z,20.81
2017-01-09T19:08:45.067Z,20.86
2017-01-09T19:13:45.052Z,20.86
2017-01-09T19:18:44.641Z,20.79
2017-01-09T19:23:45.019Z,20.74
2017-01-09T19:28:45.006Z,20.66
2017-01-09T19:33:44.999Z,20.54
2017-01-09T19:38:44.971Z,20.61
2017-01-09T19:43:44.955Z,20.56
2017-01-09T19:48:44.936Z,20.6
2017-01-09T19:53:44.541Z,20.54
2017-01-09T19:58:44.947Z,20.54
2017-01-09T20:03:44.947Z,20.51
2017-01-09T20:08:44.668Z,20.38
2017-01-09T20:13:44.680Z,20.29
2017-01-09T20:18:45.038Z,20.15
2017-01-09T20:23:44.532Z,20
2017-01-09T20:28:44.954Z,19.79
2017-01-09T20:33:44.131Z,19.67
2017-01-09T20:38:44.792Z,19.5
2017-01-09T20:43:45.068Z,19.4
2017-01-09T20:48:44.484Z,19.34
2017-01-09T20:53:44.829Z,19.24
2017-01-09T20:58:44.881Z,19.25
2017-01-09T21:03:44.762Z,19.27
2017-01-09T21:08:44.750Z,19.09
2017-01-09T21:13:44.671Z,19.13
2017-01-09T21:18:44.640Z,19.07
2017-01-09T21:23:44.632Z,19.1
2017-01-09T21:28:44.204Z,19.06
2017-01-09T21:33:43.803Z,19.07
2017-01-09T21:38:44.172Z,19
2017-01-09T21:43:44.524Z,19.19
2017-01-09T21:48:44.119Z,19.1
2017-01-09T21:53:44.524Z,19.05
2017-01-09T21:58:44.087Z,19.05
2017-01-09T22:03:44.441Z,18.84
2017-01-09T22:08:44.417Z,18.84
2017-01-09T22:13:44.392Z,18.82
2017-01-09T22:18:43.977Z,18.69
2017-01-09T22:23:44.349Z,18.69
2017-01-09T22:28:44.322Z,18.49
2017-01-09T22:33:44.301Z,18.59
2017-01-09T22:38:44.277Z,18.45
2017-01-09T22:43:44.268Z,18.32
2017-01-09T22:48:44.228Z,18.36
2017-01-09T22:53:44.195Z,18.19
2017-01-09T22:58:44.169Z,18.13
2017-01-09T23:03:43.737Z,18.02
2017-01-09T23:08:44.134Z,17.96
2017-01-09T23:13:44.070Z,17.94
2017-01-09T23:18:43.656Z,17.88
2017-01-09T23:23:43.624Z,17.77
2017-01-09T23:28:43.597Z,17.66
2017-01-09T23:33:44.048Z,17.63
2017-01-09T23:38:43.926Z,17.58
2017-01-09T23:43:43.498Z,17.52
2017-01-09T23:48:43.860Z,17.49
2017-01-09T23:53:43.829Z,17.43
2017-01-09T23:58:43.790Z,17.4
